sensor_id;sensor_type;location;lat;lon;timestamp;P1;durP1;ratioP1;P2;durP2;ratioP2
22026;SDS011;11177;50.966;10.070;2022-12-10T00:01:28;21.98;;;12.68;;
22026;SDS011;11177;50.966;10.070;2022-12-10T00:03:57;24.73;;;13.60;;
22026;SDS011;11177;50.966;10.070;2022-12-10T00:06:29;23.70;;;13.45;;
22026;SDS011;11177;50.966;10.070;2022-12-10T00:09:01;24.67;;;13.60;;
22026;SDS011;11177;50.966;10.070;2022-12-10T00:11:29;24.25;;;13.80;;
22026;SDS011;11177;50.966;10.070;2022-12-10T00:13:57;24.77;;;13.55;;
22026;SDS011;11177;50.966;10.070;2022-12-10T00:16:26;24.90;;;14.32;;
22026;SDS011;11177;50.966;10.070;2022-12-10T00:18:54;23.85;;;13.77;;
22026;SDS011;11177;50.966;10.070;2022-12-10T00:21:27;24.63;;;13.88;;
22026;SDS011;11177;50.966;10.070;2022-12-10T00:23:55;22.92;;;13.68;;
22026;SDS011;11177;50.966;10.070;2022-12-10T00:26:24;24.63;;;13.85;;
22026;SDS011;11177;50.966;10.070;2022-12-10T00:28:56;26.42;;;13.85;;
22026;SDS011;11177;50.966;10.070;2022-12-10T00:31:25;24.65;;;13.88;;
22026;SDS011;11177;50.966;10.070;2022-12-10T00:33:54;26.95;;;14.00;;
22026;SDS011;11177;50.966;10.070;2022-12-10T00:36:28;25.10;;;14.27;;
22026;SDS011;11177;50.966;10.070;2022-12-10T00:38:57;25.98;;;13.52;;
22026;SDS011;11177;50.966;10.070;2022-12-10T00:41:24;26.70;;;14.15;;
22026;SDS011;11177;50.966;10.070;2022-12-10T00:43:50;23.92;;;13.68;;
22026;SDS011;11177;50.966;10.070;2022-12-10T00:46:18;25.83;;;14.27;;
22026;SDS011;11177;50.966;10.070;2022-12-10T00:48:46;25.80;;;14.82;;
22026;SDS011;11177;50.966;10.070;2022-12-10T00:51:17;24.52;;;14.55;;
22026;SDS011;11177;50.966;10.070;2022-12-10T00:53:46;25.73;;;14.45;;
22026;SDS011;11177;50.966;10.070;2022-12-10T00:56:14;25.52;;;13.98;;
22026;SDS011;11177;50.966;10.070;2022-12-10T00:58:43;25.40;;;14.63;;
22026;SDS011;11177;50.966;10.070;2022-12-10T01:01:11;25.80;;;14.70;;
22026;SDS011;11177;50.966;10.070;2022-12-10T01:03:40;27.02;;;14.73;;
22026;SDS011;11177;50.966;10.070;2022-12-10T01:06:12;24.50;;;14.30;;
22026;SDS011;11177;50.966;10.070;2022-12-10T01:09:04;25.75;;;14.40;;
22026;SDS011;11177;50.966;10.070;2022-12-10T01:11:35;25.83;;;14.60;;
22026;SDS011;11177;50.966;10.070;2022-12-10T01:14:04;27.73;;;14.43;;
22026;SDS011;11177;50.966;10.070;2022-12-10T01:16:32;29.77;;;15.77;;
22026;SDS011;11177;50.966;10.070;2022-12-10T01:18:59;26.45;;;15.00;;
22026;SDS011;11177;50.966;10.070;2022-12-10T01:21:27;29.92;;;15.60;;
22026;SDS011;11177;50.966;10.070;2022-12-10T01:23:55;29.15;;;15.02;;
22026;SDS011;11177;50.966;10.070;2022-12-10T01:26:24;26.73;;;15.57;;
22026;SDS011;11177;50.966;10.070;2022-12-10T01:28:52;31.27;;;16.98;;
22026;SDS011;11177;50.966;10.070;2022-12-10T01:31:20;29.38;;;15.50;;
22026;SDS011;11177;50.966;10.070;2022-12-10T01:33:54;29.65;;;16.05;;
22026;SDS011;11177;50.966;10.070;2022-12-10T01:36:23;28.38;;;15.95;;
22026;SDS011;11177;50.966;10.070;2022-12-10T01:38:51;31.73;;;17.70;;
22026;SDS011;11177;50.966;10.070;2022-12-10T01:41:23;32.47;;;17.55;;
22026;SDS011;11177;50.966;10.070;2022-12-10T01:43:53;31.80;;;16.50;;
22026;SDS011;11177;50.966;10.070;2022-12-10T01:46:32;32.13;;;16.80;;
22026;SDS011;11177;50.966;10.070;2022-12-10T01:49:01;33.88;;;16.50;;
22026;SDS011;11177;50.966;10.070;2022-12-10T01:51:31;32.72;;;17.38;;
22026;SDS011;11177;50.966;10.070;2022-12-10T01:53:59;32.72;;;17.30;;
22026;SDS011;11177;50.966;10.070;2022-12-10T01:56:27;33.67;;;16.80;;
22026;SDS011;11177;50.966;10.070;2022-12-10T01:58:54;34.05;;;16.83;;
22026;SDS011;11177;50.966;10.070;2022-12-10T02:04:29;32.45;;;16.58;;
22026;SDS011;11177;50.966;10.070;2022-12-10T02:07:20;33.20;;;17.02;;
22026;SDS011;11177;50.966;10.070;2022-12-10T02:10:10;30.92;;;17.00;;
22026;SDS011;11177;50.966;10.070;2022-12-10T02:13:02;32.72;;;16.60;;
22026;SDS011;11177;50.966;10.070;2022-12-10T02:15:35;32.10;;;16.65;;
22026;SDS011;11177;50.966;10.070;2022-12-10T02:18:17;34.08;;;18.17;;
22026;SDS011;11177;50.966;10.070;2022-12-10T02:20:48;30.88;;;16.90;;
22026;SDS011;11177;50.966;10.070;2022-12-10T02:23:25;33.42;;;17.33;;
22026;SDS011;11177;50.966;10.070;2022-12-10T02:25:59;35.50;;;17.83;;
22026;SDS011;11177;50.966;10.070;2022-12-10T02:31:23;32.83;;;18.17;;
22026;SDS011;11177;50.966;10.070;2022-12-10T02:33:55;31.33;;;16.77;;
22026;SDS011;11177;50.966;10.070;2022-12-10T02:36:25;33.20;;;17.50;;
22026;SDS011;11177;50.966;10.070;2022-12-10T02:38:55;33.20;;;17.98;;
22026;SDS011;11177;50.966;10.070;2022-12-10T02:41:28;33.83;;;17.98;;
22026;SDS011;11177;50.966;10.070;2022-12-10T02:44:00;32.03;;;17.42;;
22026;SDS011;11177;50.966;10.070;2022-12-10T02:46:29;34.70;;;17.60;;
22026;SDS011;11177;50.966;10.070;2022-12-10T02:48:58;32.22;;;16.35;;
22026;SDS011;11177;50.966;10.070;2022-12-10T02:51:27;33.00;;;17.20;;
22026;SDS011;11177;50.966;10.070;2022-12-10T02:54:02;32.42;;;17.35;;
22026;SDS011;11177;50.966;10.070;2022-12-10T02:56:34;34.15;;;17.63;;
22026;SDS011;11177;50.966;10.070;2022-12-10T02:59:16;33.05;;;17.30;;
22026;SDS011;11177;50.966;10.070;2022-12-10T03:01:56;31.17;;;17.10;;
22026;SDS011;11177;50.966;10.070;2022-12-10T03:04:39;30.85;;;15.63;;
22026;SDS011;11177;50.966;10.070;2022-12-10T03:07:45;31.15;;;16.17;;
22026;SDS011;11177;50.966;10.070;2022-12-10T03:13:13;33.05;;;15.88;;
22026;SDS011;11177;50.966;10.070;2022-12-10T03:15:41;32.28;;;16.15;;
22026;SDS011;11177;50.966;10.070;2022-12-10T03:18:09;33.85;;;17.58;;
22026;SDS011;11177;50.966;10.070;2022-12-10T03:20:38;31.40;;;16.42;;
22026;SDS011;11177;50.966;10.070;2022-12-10T03:23:07;30.80;;;16.45;;
22026;SDS011;11177;50.966;10.070;2022-12-10T03:25:36;28.90;;;15.75;;
22026;SDS011;11177;50.966;10.070;2022-12-10T03:28:04;30.60;;;16.13;;
22026;SDS011;11177;50.966;10.070;2022-12-10T03:30:31;29.15;;;16.13;;
22026;SDS011;11177;50.966;10.070;2022-12-10T03:32:59;27.15;;;15.25;;
22026;SDS011;11177;50.966;10.070;2022-12-10T03:35:26;27.98;;;15.40;;
22026;SDS011;11177;50.966;10.070;2022-12-10T03:37:53;26.70;;;15.05;;
22026;SDS011;11177;50.966;10.070;2022-12-10T03:40:21;28.50;;;15.15;;
22026;SDS011;11177;50.966;10.070;2022-12-10T03:42:50;24.98;;;14.25;;
22026;SDS011;11177;50.966;10.070;2022-12-10T03:45:17;27.08;;;14.93;;
22026;SDS011;11177;50.966;10.070;2022-12-10T03:47:44;27.50;;;15.20;;
22026;SDS011;11177;50.966;10.070;2022-12-10T03:50:11;27.73;;;15.10;;
22026;SDS011;11177;50.966;10.070;2022-12-10T03:52:38;25.42;;;14.00;;
22026;SDS011;11177;50.966;10.070;2022-12-10T03:55:06;24.98;;;13.95;;
22026;SDS011;11177;50.966;10.070;2022-12-10T03:57:33;26.83;;;15.10;;
22026;SDS011;11177;50.966;10.070;2022-12-10T04:00:01;26.95;;;15.15;;
22026;SDS011;11177;50.966;10.070;2022-12-10T04:02:29;23.63;;;13.43;;
22026;SDS011;11177;50.966;10.070;2022-12-10T04:04:56;28.63;;;14.00;;
22026;SDS011;11177;50.966;10.070;2022-12-10T04:07:23;27.67;;;14.68;;
22026;SDS011;11177;50.966;10.070;2022-12-10T04:09:50;25.98;;;13.93;;
22026;SDS011;11177;50.966;10.070;2022-12-10T04:12:17;29.35;;;15.52;;
22026;SDS011;11177;50.966;10.070;2022-12-10T04:14:44;27.33;;;15.07;;
22026;SDS011;11177;50.966;10.070;2022-12-10T04:17:31;26.77;;;15.00;;
22026;SDS011;11177;50.966;10.070;2022-12-10T04:19:59;27.38;;;14.57;;
22026;SDS011;11177;50.966;10.070;2022-12-10T04:22:27;25.90;;;14.75;;
22026;SDS011;11177;50.966;10.070;2022-12-10T04:25:12;26.55;;;14.50;;
22026;SDS011;11177;50.966;10.070;2022-12-10T04:27:59;28.17;;;14.38;;
22026;SDS011;11177;50.966;10.070;2022-12-10T04:30:26;25.90;;;14.27;;
22026;SDS011;11177;50.966;10.070;2022-12-10T04:32:53;29.15;;;14.75;;
22026;SDS011;11177;50.966;10.070;2022-12-10T04:35:19;28.08;;;14.43;;
22026;SDS011;11177;50.966;10.070;2022-12-10T04:37:46;26.75;;;14.65;;
22026;SDS011;11177;50.966;10.070;2022-12-10T04:40:13;25.95;;;14.20;;
22026;SDS011;11177;50.966;10.070;2022-12-10T04:42:40;25.25;;;14.68;;
22026;SDS011;11177;50.966;10.070;2022-12-10T04:45:06;28.38;;;15.13;;
22026;SDS011;11177;50.966;10.070;2022-12-10T04:47:33;28.20;;;15.60;;
22026;SDS011;11177;50.966;10.070;2022-12-10T04:50:01;29.17;;;15.65;;
22026;SDS011;11177;50.966;10.070;2022-12-10T04:52:27;29.67;;;15.20;;
22026;SDS011;11177;50.966;10.070;2022-12-10T04:54:55;29.65;;;15.52;;
22026;SDS011;11177;50.966;10.070;2022-12-10T04:57:21;32.28;;;16.33;;
22026;SDS011;11177;50.966;10.070;2022-12-10T04:59:48;28.05;;;15.02;;
22026;SDS011;11177;50.966;10.070;2022-12-10T05:02:15;27.02;;;14.70;;
22026;SDS011;11177;50.966;10.070;2022-12-10T05:04:42;31.02;;;16.58;;
22026;SDS011;11177;50.966;10.070;2022-12-10T05:07:09;29.98;;;16.00;;
22026;SDS011;11177;50.966;10.070;2022-12-10T05:09:37;28.80;;;15.57;;
22026;SDS011;11177;50.966;10.070;2022-12-10T05:12:05;31.27;;;16.90;;
22026;SDS011;11177;50.966;10.070;2022-12-10T05:14:32;34.45;;;17.63;;
22026;SDS011;11177;50.966;10.070;2022-12-10T05:16:59;30.35;;;15.93;;
22026;SDS011;11177;50.966;10.070;2022-12-10T05:19:25;29.73;;;15.80;;
22026;SDS011;11177;50.966;10.070;2022-12-10T05:21:53;29.65;;;15.65;;
22026;SDS011;11177;50.966;10.070;2022-12-10T05:24:39;28.52;;;15.07;;
22026;SDS011;11177;50.966;10.070;2022-12-10T05:27:06;28.40;;;15.38;;
22026;SDS011;11177;50.966;10.070;2022-12-10T05:29:32;31.98;;;16.27;;
22026;SDS011;11177;50.966;10.070;2022-12-10T05:31:59;28.90;;;15.38;;
22026;SDS011;11177;50.966;10.070;2022-12-10T05:34:27;33.72;;;16.40;;
22026;SDS011;11177;50.966;10.070;2022-12-10T05:36:54;31.52;;;16.23;;
22026;SDS011;11177;50.966;10.070;2022-12-10T05:39:20;29.23;;;14.85;;
22026;SDS011;11177;50.966;10.070;2022-12-10T05:41:47;28.35;;;14.65;;
22026;SDS011;11177;50.966;10.070;2022-12-10T05:44:14;28.05;;;14.77;;
22026;SDS011;11177;50.966;10.070;2022-12-10T05:46:42;26.35;;;15.00;;
22026;SDS011;11177;50.966;10.070;2022-12-10T05:49:09;24.00;;;13.50;;
22026;SDS011;11177;50.966;10.070;2022-12-10T05:51:36;26.52;;;14.25;;
22026;SDS011;11177;50.966;10.070;2022-12-10T05:54:04;28.75;;;15.35;;
22026;SDS011;11177;50.966;10.070;2022-12-10T05:56:32;27.85;;;14.48;;
22026;SDS011;11177;50.966;10.070;2022-12-10T05:59:01;29.50;;;15.25;;
22026;SDS011;11177;50.966;10.070;2022-12-10T06:01:30;28.80;;;14.45;;
22026;SDS011;11177;50.966;10.070;2022-12-10T06:04:02;28.90;;;14.48;;
22026;SDS011;11177;50.966;10.070;2022-12-10T06:06:32;26.95;;;14.55;;
22026;SDS011;11177;50.966;10.070;2022-12-10T06:09:01;28.58;;;14.95;;
22026;SDS011;11177;50.966;10.070;2022-12-10T06:11:28;28.73;;;15.35;;
22026;SDS011;11177;50.966;10.070;2022-12-10T06:13:56;28.38;;;15.38;;
22026;SDS011;11177;50.966;10.070;2022-12-10T06:16:24;26.48;;;14.57;;
22026;SDS011;11177;50.966;10.070;2022-12-10T06:18:52;29.55;;;15.55;;
22026;SDS011;11177;50.966;10.070;2022-12-10T06:21:20;27.98;;;14.77;;
22026;SDS011;11177;50.966;10.070;2022-12-10T06:23:49;30.65;;;15.45;;
22026;SDS011;11177;50.966;10.070;2022-12-10T06:26:22;29.58;;;15.23;;
22026;SDS011;11177;50.966;10.070;2022-12-10T06:28:51;30.20;;;16.03;;
22026;SDS011;11177;50.966;10.070;2022-12-10T06:31:19;28.55;;;15.65;;
22026;SDS011;11177;50.966;10.070;2022-12-10T06:33:46;32.10;;;16.70;;
22026;SDS011;11177;50.966;10.070;2022-12-10T06:36:14;28.48;;;15.82;;
22026;SDS011;11177;50.966;10.070;2022-12-10T06:38:42;28.48;;;16.02;;
22026;SDS011;11177;50.966;10.070;2022-12-10T06:41:10;27.13;;;14.82;;
22026;SDS011;11177;50.966;10.070;2022-12-10T06:43:38;25.95;;;14.73;;
22026;SDS011;11177;50.966;10.070;2022-12-10T06:46:10;24.38;;;13.82;;
22026;SDS011;11177;50.966;10.070;2022-12-10T06:48:40;24.38;;;13.40;;
22026;SDS011;11177;50.966;10.070;2022-12-10T06:51:08;25.30;;;13.52;;
22026;SDS011;11177;50.966;10.070;2022-12-10T06:53:36;26.27;;;14.25;;
22026;SDS011;11177;50.966;10.070;2022-12-10T06:56:04;24.25;;;13.05;;
22026;SDS011;11177;50.966;10.070;2022-12-10T06:58:32;24.40;;;13.38;;
22026;SDS011;11177;50.966;10.070;2022-12-10T07:01:04;25.52;;;14.40;;
22026;SDS011;11177;50.966;10.070;2022-12-10T07:03:32;26.42;;;14.63;;
22026;SDS011;11177;50.966;10.070;2022-12-10T07:05:59;27.88;;;14.50;;
22026;SDS011;11177;50.966;10.070;2022-12-10T07:08:27;24.27;;;13.40;;
22026;SDS011;11177;50.966;10.070;2022-12-10T07:10:54;27.63;;;14.45;;
22026;SDS011;11177;50.966;10.070;2022-12-10T07:13:21;23.67;;;14.25;;
22026;SDS011;11177;50.966;10.070;2022-12-10T07:18:22;27.13;;;12.55;;
22026;SDS011;11177;50.966;10.070;2022-12-10T07:20:49;26.25;;;13.40;;
22026;SDS011;11177;50.966;10.070;2022-12-10T07:23:16;26.27;;;13.90;;
22026;SDS011;11177;50.966;10.070;2022-12-10T07:25:45;23.23;;;13.43;;
22026;SDS011;11177;50.966;10.070;2022-12-10T07:28:12;26.77;;;15.02;;
22026;SDS011;11177;50.966;10.070;2022-12-10T07:30:38;27.35;;;15.57;;
22026;SDS011;11177;50.966;10.070;2022-12-10T07:33:05;30.52;;;16.35;;
22026;SDS011;11177;50.966;10.070;2022-12-10T07:35:32;28.50;;;15.68;;
22026;SDS011;11177;50.966;10.070;2022-12-10T07:37:59;30.00;;;16.67;;
22026;SDS011;11177;50.966;10.070;2022-12-10T07:40:25;30.52;;;17.33;;
22026;SDS011;11177;50.966;10.070;2022-12-10T07:42:52;33.50;;;18.02;;
22026;SDS011;11177;50.966;10.070;2022-12-10T07:45:20;31.73;;;17.52;;
22026;SDS011;11177;50.966;10.070;2022-12-10T07:47:46;35.50;;;19.40;;
22026;SDS011;11177;50.966;10.070;2022-12-10T07:50:13;38.15;;;21.08;;
22026;SDS011;11177;50.966;10.070;2022-12-10T07:52:40;31.77;;;16.55;;
22026;SDS011;11177;50.966;10.070;2022-12-10T07:55:07;34.67;;;17.60;;
22026;SDS011;11177;50.966;10.070;2022-12-10T07:57:35;30.67;;;15.57;;
22026;SDS011;11177;50.966;10.070;2022-12-10T08:00:02;29.50;;;16.45;;
22026;SDS011;11177;50.966;10.070;2022-12-10T08:02:31;32.63;;;17.13;;
22026;SDS011;11177;50.966;10.070;2022-12-10T08:04:57;35.05;;;17.63;;
22026;SDS011;11177;50.966;10.070;2022-12-10T08:07:24;28.17;;;13.52;;
22026;SDS011;11177;50.966;10.070;2022-12-10T08:09:51;28.63;;;15.52;;
22026;SDS011;11177;50.966;10.070;2022-12-10T08:12:18;23.45;;;12.77;;
22026;SDS011;11177;50.966;10.070;2022-12-10T08:14:45;23.95;;;13.48;;
22026;SDS011;11177;50.966;10.070;2022-12-10T08:17:11;21.50;;;11.85;;
22026;SDS011;11177;50.966;10.070;2022-12-10T08:19:39;25.50;;;13.00;;
22026;SDS011;11177;50.966;10.070;2022-12-10T08:22:06;22.05;;;12.38;;
22026;SDS011;11177;50.966;10.070;2022-12-10T08:24:33;22.55;;;12.82;;
22026;SDS011;11177;50.966;10.070;2022-12-10T08:26:59;28.40;;;14.55;;
22026;SDS011;11177;50.966;10.070;2022-12-10T08:29:27;22.20;;;11.98;;
22026;SDS011;11177;50.966;10.070;2022-12-10T08:31:53;22.75;;;12.60;;
22026;SDS011;11177;50.966;10.070;2022-12-10T08:34:21;21.60;;;11.88;;
22026;SDS011;11177;50.966;10.070;2022-12-10T08:36:47;22.38;;;12.73;;
22026;SDS011;11177;50.966;10.070;2022-12-10T08:39:15;21.85;;;11.50;;
22026;SDS011;11177;50.966;10.070;2022-12-10T08:41:44;21.88;;;12.25;;
22026;SDS011;11177;50.966;10.070;2022-12-10T08:44:11;23.73;;;12.27;;
22026;SDS011;11177;50.966;10.070;2022-12-10T08:46:38;19.65;;;10.05;;
22026;SDS011;11177;50.966;10.070;2022-12-10T08:49:05;17.48;;;9.68;;
22026;SDS011;11177;50.966;10.070;2022-12-10T08:51:36;18.83;;;10.82;;
22026;SDS011;11177;50.966;10.070;2022-12-10T08:54:03;19.30;;;10.85;;
22026;SDS011;11177;50.966;10.070;2022-12-10T08:56:30;16.20;;;9.68;;
22026;SDS011;11177;50.966;10.070;2022-12-10T08:58:57;20.92;;;11.55;;
22026;SDS011;11177;50.966;10.070;2022-12-10T09:01:24;21.05;;;11.90;;
22026;SDS011;11177;50.966;10.070;2022-12-10T09:03:51;20.15;;;11.55;;
22026;SDS011;11177;50.966;10.070;2022-12-10T09:06:19;20.13;;;11.27;;
22026;SDS011;11177;50.966;10.070;2022-12-10T09:08:48;17.48;;;10.15;;
22026;SDS011;11177;50.966;10.070;2022-12-10T09:14:08;22.27;;;12.75;;
22026;SDS011;11177;50.966;10.070;2022-12-10T09:16:36;21.90;;;12.35;;
22026;SDS011;11177;50.966;10.070;2022-12-10T09:19:03;22.08;;;12.93;;
22026;SDS011;11177;50.966;10.070;2022-12-10T09:21:30;15.60;;;9.20;;
22026;SDS011;11177;50.966;10.070;2022-12-10T09:23:58;16.13;;;9.43;;
22026;SDS011;11177;50.966;10.070;2022-12-10T09:26:25;17.73;;;10.35;;
22026;SDS011;11177;50.966;10.070;2022-12-10T09:28:52;18.10;;;9.77;;
22026;SDS011;11177;50.966;10.070;2022-12-10T09:31:21;17.38;;;10.30;;
22026;SDS011;11177;50.966;10.070;2022-12-10T09:33:48;18.58;;;10.95;;
22026;SDS011;11177;50.966;10.070;2022-12-10T09:36:16;16.33;;;9.35;;
22026;SDS011;11177;50.966;10.070;2022-12-10T09:38:44;17.90;;;9.40;;
22026;SDS011;11177;50.966;10.070;2022-12-10T09:42:38;19.52;;;10.93;;
22026;SDS011;11177;50.966;10.070;2022-12-10T09:44:32;25.38;;;12.77;;
22026;SDS011;11177;50.966;10.070;2022-12-10T09:53:13;18.10;;;9.80;;
22026;SDS011;11177;50.966;10.070;2022-12-10T09:55:43;19.35;;;10.38;;
22026;SDS011;11177;50.966;10.070;2022-12-10T09:58:21;20.33;;;11.70;;
22026;SDS011;11177;50.966;10.070;2022-12-10T10:01:03;20.17;;;10.63;;
22026;SDS011;11177;50.966;10.070;2022-12-10T10:03:32;18.42;;;10.38;;
22026;SDS011;11177;50.966;10.070;2022-12-10T10:06:03;18.35;;;10.25;;
22026;SDS011;11177;50.966;10.070;2022-12-10T10:08:38;17.77;;;10.10;;
22026;SDS011;11177;50.966;10.070;2022-12-10T10:11:11;22.17;;;11.25;;
22026;SDS011;11177;50.966;10.070;2022-12-10T10:13:42;17.55;;;10.50;;
22026;SDS011;11177;50.966;10.070;2022-12-10T10:19:11;20.08;;;11.52;;
22026;SDS011;11177;50.966;10.070;2022-12-10T10:21:45;17.67;;;10.38;;
22026;SDS011;11177;50.966;10.070;2022-12-10T10:24:20;20.85;;;11.20;;
22026;SDS011;11177;50.966;10.070;2022-12-10T10:26:51;19.42;;;10.98;;
22026;SDS011;11177;50.966;10.070;2022-12-10T10:29:20;19.25;;;11.43;;
22026;SDS011;11177;50.966;10.070;2022-12-10T10:31:57;19.85;;;11.23;;
22026;SDS011;11177;50.966;10.070;2022-12-10T10:34:53;22.90;;;12.65;;
22026;SDS011;11177;50.966;10.070;2022-12-10T10:37:24;22.75;;;12.35;;
22026;SDS011;11177;50.966;10.070;2022-12-10T10:40:26;22.20;;;13.00;;
22026;SDS011;11177;50.966;10.070;2022-12-10T10:42:56;20.07;;;11.60;;
22026;SDS011;11177;50.966;10.070;2022-12-10T10:45:31;20.83;;;12.18;;
22026;SDS011;11177;50.966;10.070;2022-12-10T10:51:07;18.80;;;10.95;;
22026;SDS011;11177;50.966;10.070;2022-12-10T10:53:42;15.52;;;9.32;;
22026;SDS011;11177;50.966;10.070;2022-12-10T10:56:12;17.42;;;10.40;;
22026;SDS011;11177;50.966;10.070;2022-12-10T10:58:50;15.50;;;10.10;;
22026;SDS011;11177;50.966;10.070;2022-12-10T11:01:20;17.88;;;10.35;;
22026;SDS011;11177;50.966;10.070;2022-12-10T11:03:48;20.42;;;11.63;;
22026;SDS011;11177;50.966;10.070;2022-12-10T11:06:16;18.77;;;11.00;;
22026;SDS011;11177;50.966;10.070;2022-12-10T11:08:45;18.20;;;11.10;;
22026;SDS011;11177;50.966;10.070;2022-12-10T11:11:18;19.15;;;9.40;;
22026;SDS011;11177;50.966;10.070;2022-12-10T11:13:47;17.20;;;9.38;;
22026;SDS011;11177;50.966;10.070;2022-12-10T11:16:18;15.77;;;9.75;;
22026;SDS011;11177;50.966;10.070;2022-12-10T11:18:58;18.77;;;11.20;;
22026;SDS011;11177;50.966;10.070;2022-12-10T11:21:31;16.25;;;9.68;;
22026;SDS011;11177;50.966;10.070;2022-12-10T11:24:00;14.95;;;9.00;;
22026;SDS011;11177;50.966;10.070;2022-12-10T11:26:51;16.10;;;9.73;;
22026;SDS011;11177;50.966;10.070;2022-12-10T11:32:32;14.88;;;8.60;;
22026;SDS011;11177;50.966;10.070;2022-12-10T11:35:34;14.30;;;8.45;;
22026;SDS011;11177;50.966;10.070;2022-12-10T11:38:21;13.73;;;8.27;;
22026;SDS011;11177;50.966;10.070;2022-12-10T11:41:00;17.38;;;10.93;;
22026;SDS011;11177;50.966;10.070;2022-12-10T11:43:41;13.90;;;8.57;;
22026;SDS011;11177;50.966;10.070;2022-12-10T11:46:42;12.52;;;7.65;;
22026;SDS011;11177;50.966;10.070;2022-12-10T11:49:47;13.55;;;7.75;;
22026;SDS011;11177;50.966;10.070;2022-12-10T11:55:13;11.73;;;6.63;;
22026;SDS011;11177;50.966;10.070;2022-12-10T11:58:41;12.10;;;7.13;;
22026;SDS011;11177;50.966;10.070;2022-12-10T12:00:53;12.18;;;8.15;;
22026;SDS011;11177;50.966;10.070;2022-12-10T12:14:56;19.60;;;11.05;;
22026;SDS011;11177;50.966;10.070;2022-12-10T12:17:41;14.25;;;8.70;;
22026;SDS011;11177;50.966;10.070;2022-12-10T12:20:20;15.32;;;9.00;;
22026;SDS011;11177;50.966;10.070;2022-12-10T12:22:51;20.45;;;9.68;;
22026;SDS011;11177;50.966;10.070;2022-12-10T12:25:26;16.73;;;9.10;;
22026;SDS011;11177;50.966;10.070;2022-12-10T12:28:00;14.68;;;8.82;;
22026;SDS011;11177;50.966;10.070;2022-12-10T12:30:32;15.07;;;9.77;;
22026;SDS011;11177;50.966;10.070;2022-12-10T12:33:15;17.42;;;9.23;;
22026;SDS011;11177;50.966;10.070;2022-12-10T12:35:52;17.70;;;10.35;;
22026;SDS011;11177;50.966;10.070;2022-12-10T12:38:41;16.23;;;10.10;;
22026;SDS011;11177;50.966;10.070;2022-12-10T12:41:20;20.88;;;11.43;;
22026;SDS011;11177;50.966;10.070;2022-12-10T12:43:56;16.50;;;9.85;;
22026;SDS011;11177;50.966;10.070;2022-12-10T12:46:30;19.20;;;11.18;;
22026;SDS011;11177;50.966;10.070;2022-12-10T12:49:43;17.00;;;10.60;;
22026;SDS011;11177;50.966;10.070;2022-12-10T12:52:03;21.17;;;12.80;;
22026;SDS011;11177;50.966;10.070;2022-12-10T12:54:36;23.48;;;12.85;;
22026;SDS011;11177;50.966;10.070;2022-12-10T12:57:14;36.38;;;20.35;;
22026;SDS011;11177;50.966;10.070;2022-12-10T13:00:15;36.25;;;18.00;;
22026;SDS011;11177;50.966;10.070;2022-12-10T13:02:47;16.70;;;9.38;;
22026;SDS011;11177;50.966;10.070;2022-12-10T13:05:23;11.88;;;7.00;;
22026;SDS011;11177;50.966;10.070;2022-12-10T13:19:24;14.80;;;8.57;;
22026;SDS011;11177;50.966;10.070;2022-12-10T13:21:57;16.08;;;9.23;;
22026;SDS011;11177;50.966;10.070;2022-12-10T13:27:29;18.08;;;10.02;;
22026;SDS011;11177;50.966;10.070;2022-12-10T13:30:05;14.05;;;8.35;;
22026;SDS011;11177;50.966;10.070;2022-12-10T13:33:09;15.95;;;8.60;;
22026;SDS011;11177;50.966;10.070;2022-12-10T13:35:58;18.92;;;10.50;;
22026;SDS011;11177;50.966;10.070;2022-12-10T13:38:39;32.03;;;15.82;;
22026;SDS011;11177;50.966;10.070;2022-12-10T13:41:07;21.58;;;11.98;;
22026;SDS011;11177;50.966;10.070;2022-12-10T13:43:53;18.33;;;10.52;;
22026;SDS011;11177;50.966;10.070;2022-12-10T13:46:51;14.48;;;8.07;;
22026;SDS011;11177;50.966;10.070;2022-12-10T13:49:24;16.38;;;9.60;;
22026;SDS011;11177;50.966;10.070;2022-12-10T13:52:03;17.63;;;9.85;;
22026;SDS011;11177;50.966;10.070;2022-12-10T13:57:58;28.85;;;14.88;;
22026;SDS011;11177;50.966;10.070;2022-12-10T14:00:35;15.52;;;9.32;;
22026;SDS011;11177;50.966;10.070;2022-12-10T14:06:21;15.00;;;8.13;;
22026;SDS011;11177;50.966;10.070;2022-12-10T14:08:54;24.20;;;12.48;;
22026;SDS011;11177;50.966;10.070;2022-12-10T14:11:26;13.65;;;8.38;;
22026;SDS011;11177;50.966;10.070;2022-12-10T14:14:03;14.85;;;8.90;;
22026;SDS011;11177;50.966;10.070;2022-12-10T14:16:34;16.55;;;9.38;;
22026;SDS011;11177;50.966;10.070;2022-12-10T14:19:06;13.52;;;8.40;;
22026;SDS011;11177;50.966;10.070;2022-12-10T14:21:35;14.77;;;8.60;;
22026;SDS011;11177;50.966;10.070;2022-12-10T14:24:05;15.52;;;9.00;;
22026;SDS011;11177;50.966;10.070;2022-12-10T14:26:33;17.85;;;10.07;;
22026;SDS011;11177;50.966;10.070;2022-12-10T14:29:17;15.68;;;8.98;;
22026;SDS011;11177;50.966;10.070;2022-12-10T14:31:54;15.35;;;8.75;;
22026;SDS011;11177;50.966;10.070;2022-12-10T14:34:23;15.88;;;9.25;;
22026;SDS011;11177;50.966;10.070;2022-12-10T14:36:54;16.48;;;10.05;;
22026;SDS011;11177;50.966;10.070;2022-12-10T14:39:27;16.73;;;9.90;;
22026;SDS011;11177;50.966;10.070;2022-12-10T14:42:02;20.17;;;10.85;;
22026;SDS011;11177;50.966;10.070;2022-12-10T14:44:30;14.85;;;8.52;;
22026;SDS011;11177;50.966;10.070;2022-12-10T14:47:05;15.60;;;9.25;;
22026;SDS011;11177;50.966;10.070;2022-12-10T14:52:20;18.35;;;10.40;;
22026;SDS011;11177;50.966;10.070;2022-12-10T14:54:50;17.00;;;10.05;;
22026;SDS011;11177;50.966;10.070;2022-12-10T14:57:28;17.80;;;10.50;;
22026;SDS011;11177;50.966;10.070;2022-12-10T15:00:05;18.80;;;10.68;;
22026;SDS011;11177;50.966;10.070;2022-12-10T15:02:37;25.88;;;12.75;;
22026;SDS011;11177;50.966;10.070;2022-12-10T15:08:02;25.27;;;12.93;;
22026;SDS011;11177;50.966;10.070;2022-12-10T15:10:34;26.88;;;13.77;;
22026;SDS011;11177;50.966;10.070;2022-12-10T15:13:03;21.80;;;12.00;;
22026;SDS011;11177;50.966;10.070;2022-12-10T15:15:35;23.00;;;11.60;;
22026;SDS011;11177;50.966;10.070;2022-12-10T15:18:09;24.73;;;13.18;;
22026;SDS011;11177;50.966;10.070;2022-12-10T15:20:47;22.92;;;12.02;;
22026;SDS011;11177;50.966;10.070;2022-12-10T15:23:29;21.02;;;12.25;;
22026;SDS011;11177;50.966;10.070;2022-12-10T15:31:54;25.48;;;13.95;;
22026;SDS011;11177;50.966;10.070;2022-12-10T15:34:25;21.00;;;11.48;;
22026;SDS011;11177;50.966;10.070;2022-12-10T15:36:54;28.40;;;14.52;;
22026;SDS011;11177;50.966;10.070;2022-12-10T15:39:29;18.95;;;10.05;;
22026;SDS011;11177;50.966;10.070;2022-12-10T15:42:05;20.17;;;11.43;;
22026;SDS011;11177;50.966;10.070;2022-12-10T15:44:37;18.98;;;10.30;;
22026;SDS011;11177;50.966;10.070;2022-12-10T15:47:23;52.47;;;27.65;;
22026;SDS011;11177;50.966;10.070;2022-12-10T15:49:52;20.13;;;11.57;;
22026;SDS011;11177;50.966;10.070;2022-12-10T15:52:24;30.30;;;15.30;;
22026;SDS011;11177;50.966;10.070;2022-12-10T15:54:53;68.50;;;33.90;;